Time;durP1;ratioP1;P1;durP2;ratioP2;P2;SDS_P1;SDS_P2;PMS_P1;PMS_P2;Temp;Humidity;BMP_temperature;BMP_pressure;BME280_temperature;BME280_humidity;BME280_pressure;Samples;Min_cycle;Max_cycle;Signal;HPM_P1;HPM_P2
2023/05/23 00:01:15;;;;;;;16.52;9.95;;;;;;;14.46;100.00;164346.34;5070150;28;20091;-65
2023/05/23 00:03:41;;;;;;;10.70;7.75;;;;;;;14.46;100.00;164346.34;5069122;28;20067;-65
2023/05/23 00:06:06;;;;;;;13.65;9.25;;;;;;;14.44;100.00;164342.25;5070514;28;20025;-64
2023/05/23 00:08:31;;;;;;;12.60;9.13;;;;;;;14.47;100.00;164347.69;5068411;28;20025;-64
2023/05/23 00:10:57;;;;;;;9.48;8.45;;;;;;;14.46;100.00;164346.34;5070912;28;20017;-64
2023/05/23 00:13:22;;;;;;;9.38;8.05;;;;;;;14.48;100.00;164351.78;5069184;28;20502;-64
2023/05/23 00:15:47;;;;;;;18.00;9.43;;;;;;;14.44;100.00;164340.94;5069961;28;20029;-64
2023/05/23 00:18:14;;;;;;;10.82;9.73;;;;;;;14.47;100.00;164349.06;5070546;28;20017;-64
2023/05/23 00:20:41;;;;;;;14.45;10.32;;;;;;;14.44;100.00;164342.25;5068597;28;20044;-64
2023/05/23 00:23:08;;;;;;;18.80;10.70;;;;;;;14.42;100.00;164335.50;5070269;28;20032;-64
2023/05/23 00:25:34;;;;;;;12.90;10.43;;;;;;;14.38;100.00;164326.03;5068572;28;20047;-64
2023/05/23 00:28:00;;;;;;;18.23;12.57;;;;;;;14.42;100.00;164335.50;5070558;28;20020;-64
2023/05/23 00:30:26;;;;;;;15.98;11.30;;;;;;;14.36;100.00;164319.28;5068848;28;20032;-64
2023/05/23 00:32:53;;;;;;;18.10;12.35;;;;;;;14.30;100.00;164304.38;5069895;28;20471;-64
2023/05/23 00:35:19;;;;;;;17.80;14.75;;;;;;;14.37;100.00;164323.31;5068560;28;20045;-63
2023/05/23 00:37:44;;;;;;;17.75;13.20;;;;;;;14.33;100.00;164312.53;5070464;28;20099;-66
2023/05/23 00:40:10;;;;;;;16.13;13.63;;;;;;;14.32;100.00;164308.47;5068252;28;20511;-66
2023/05/23 00:42:36;;;;;;;20.67;13.38;;;;;;;14.35;100.00;164316.56;5070122;28;20471;-66
2023/05/23 00:45:01;;;;;;;19.00;15.25;;;;;;;14.32;100.00;164308.47;5068872;28;20036;-65
2023/05/23 00:47:27;;;;;;;21.05;16.05;;;;;;;14.26;100.00;164294.91;5069990;28;20036;-65
2023/05/23 00:49:52;;;;;;;19.67;14.15;;;;;;;14.24;100.00;164289.53;5068642;28;20058;-65
2023/05/23 00:52:17;;;;;;;22.25;16.67;;;;;;;14.22;100.00;164284.13;5070220;28;20471;-65
2023/05/23 00:54:43;;;;;;;18.90;15.43;;;;;;;14.26;100.00;164293.59;5067266;28;20263;-65
2023/05/23 00:57:08;;;;;;;20.92;16.10;;;;;;;14.23;100.00;164286.81;5070027;28;20411;-65
2023/05/23 00:59:35;;;;;;;25.55;18.17;;;;;;;14.22;100.00;164284.13;5068307;28;20098;-65
2023/05/23 01:02:01;;;;;;;22.40;17.00;;;;;;;14.16;100.00;164267.88;5069660;28;20123;-65
2023/05/23 01:04:27;;;;;;;24.60;16.50;;;;;;;14.22;100.00;164282.78;5068231;28;20051;-65
2023/05/23 01:06:53;;;;;;;21.42;16.92;;;;;;;14.20;100.00;164278.69;5072837;28;20025;-65
2023/05/23 01:09:22;;;;;;;19.98;17.92;;;;;;;14.13;100.00;164259.75;5071796;28;20491;-65
2023/05/23 01:12:09;;;;;;;21.50;14.82;;;;;;;14.14;100.00;164262.47;5073636;28;20120;-64
2023/05/23 01:14:44;;;;;;;17.00;14.68;;;;;;;14.12;100.00;164258.41;5071951;28;20051;-65
2023/05/23 01:17:20;;;;;;;22.48;15.35;;;;;;;14.10;100.00;164251.66;5072883;28;20024;-65
2023/05/23 01:20:00;;;;;;;21.20;15.93;;;;;;;14.08;100.00;164246.25;5071639;28;20060;-65
2023/05/23 01:23:00;;;;;;;22.83;14.02;;;;;;;14.07;100.00;164243.53;5073450;28;20123;-65
2023/05/23 01:25:58;;;;;;;19.52;14.98;;;;;;;14.01;100.00;164228.63;5071877;28;20054;-66
2023/05/23 01:28:30;;;;;;;23.15;14.02;;;;;;;13.93;100.00;164207.00;5071875;28;20043;-66
2023/05/23 01:31:02;;;;;;;22.90;14.20;;;;;;;13.93;100.00;164208.38;5072715;28;20391;-65
2023/05/23 01:33:29;;;;;;;32.72;15.20;;;;;;;13.90;100.00;164200.25;5073121;28;20020;-65
2023/05/23 01:35:57;;;;;;;24.80;14.25;;;;;;;13.90;100.00;164200.25;5071890;28;20125;-65
2023/05/23 01:38:22;;;;;;;22.58;14.15;;;;;;;13.85;100.00;164186.72;5072736;28;20605;-65
2023/05/23 01:40:47;;;;;;;25.55;15.18;;;;;;;13.83;100.00;164179.97;5071282;28;20040;-67
2023/05/23 01:43:14;;;;;;;16.52;12.25;;;;;;;13.78;100.00;164167.78;5072944;28;20039;-66
2023/05/23 01:45:40;;;;;;;23.35;11.68;;;;;;;13.76;100.00;164162.38;5070843;28;20044;-66
2023/05/23 01:48:06;;;;;;;20.73;11.70;;;;;;;13.69;100.00;164144.81;5073106;28;20020;-66
2023/05/23 01:50:32;;;;;;;24.63;14.57;;;;;;;13.67;100.00;164138.00;5071014;28;20037;-66
2023/05/23 01:52:58;;;;;;;22.48;10.77;;;;;;;13.60;100.00;164120.47;5072803;28;20597;-67
2023/05/23 01:55:25;;;;;;;21.70;12.13;;;;;;;13.64;100.00;164132.63;5071264;28;20036;-66
2023/05/23 01:57:53;;;;;;;21.05;11.73;;;;;;;13.63;100.00;164129.94;5072679;28;20024;-67
2023/05/23 02:00:19;;;;;;;17.77;10.65;;;;;;;13.61;100.00;164124.50;5070435;28;20453;-66
2023/05/23 02:02:45;;;;;;;19.00;11.27;;;;;;;13.58;100.00;164116.41;5072715;28;20024;-66
2023/05/23 02:05:10;;;;;;;17.63;12.35;;;;;;;13.49;100.00;164092.06;5071262;28;20444;-66
2023/05/23 02:07:36;;;;;;;17.50;10.77;;;;;;;13.52;100.00;164100.16;5071672;28;20032;-66
2023/05/23 02:10:03;;;;;;;18.48;14.23;;;;;;;13.45;100.00;164081.22;5071092;28;20039;-66
2023/05/23 02:12:28;;;;;;;18.00;13.07;;;;;;;13.29;100.00;164040.59;5072122;28;20028;-65
2023/05/23 02:14:54;;;;;;;17.63;11.10;;;;;;;13.28;100.00;164037.94;5070659;28;20865;-65
2023/05/23 02:17:20;;;;;;;22.55;14.40;;;;;;;13.28;100.00;164036.56;5071369;28;20103;-65
2023/05/23 02:19:46;;;;;;;28.60;14.38;;;;;;;13.21;100.00;164019.03;5070406;28;20040;-65
2023/05/23 02:22:12;;;;;;;19.02;13.15;;;;;;;13.13;100.00;163997.38;5071789;28;20078;-65
2023/05/23 02:24:37;;;;;;;28.98;13.18;;;;;;;13.06;100.00;163978.47;5070676;28;20106;-64
2023/05/23 02:27:02;;;;;;;21.27;12.23;;;;;;;13.01;100.00;163967.63;5072052;28;20048;-65
2023/05/23 02:29:28;;;;;;;23.02;13.15;;;;;;;13.02;100.00;163970.31;5070152;28;20055;-65
2023/05/23 02:31:53;;;;;;;19.02;13.27;;;;;;;12.98;100.00;163959.53;5071939;28;20414;-66
2023/05/23 02:34:19;;;;;;;23.80;13.82;;;;;;;12.96;100.00;163954.13;5070720;28;20037;-65
2023/05/23 02:36:44;;;;;;;21.17;14.43;;;;;;;12.94;100.00;163948.69;5071351;28;20028;-65
2023/05/23 02:39:09;;;;;;;24.27;13.52;;;;;;;12.96;100.00;163954.13;5070475;28;20679;-65
2023/05/23 02:41:35;;;;;;;20.63;13.55;;;;;;;12.95;100.00;163951.41;5071419;28;20078;-66
2023/05/23 02:44:01;;;;;;;21.55;14.48;;;;;;;12.94;100.00;163947.38;5069752;28;20071;-65
2023/05/23 02:46:26;;;;;;;34.92;14.77;;;;;;;12.98;100.00;163490.94;5071908;28;20064;-65
2023/05/23 02:48:52;;;;;;;24.00;18.65;;;;;;;12.98;100.00;162459.63;5070218;28;20106;-66
2023/05/23 02:51:17;;;;;;;23.50;15.95;;;;;;;12.95;100.00;162518.09;5071140;28;20036;-66
2023/05/23 02:53:42;;;;;;;21.52;16.27;;;;;;;12.95;100.00;163554.91;5070121;28;20036;-65
2023/05/23 02:56:08;;;;;;;32.53;19.38;;;;;;;12.96;100.00;163952.72;5071581;28;20016;-65
2023/05/23 02:58:36;;;;;;;27.08;16.25;;;;;;;12.94;100.00;163948.69;5069502;28;20048;-65
2023/05/23 03:01:02;;;;;;;33.78;19.80;;;;;;;12.88;100.00;163932.47;5071417;28;20384;-66
2023/05/23 03:03:27;;;;;;;29.95;17.40;;;;;;;12.86;100.00;163927.06;5069958;28;20020;-65
2023/05/23 03:05:53;;;;;;;25.65;16.63;;;;;;;12.87;100.00;163928.44;5071316;28;20024;-65
2023/05/23 03:08:19;;;;;;;24.63;16.88;;;;;;;12.89;100.00;163933.81;5071481;28;20046;-65
2023/05/23 03:10:44;;;;;;;24.08;15.77;;;;;;;12.83;100.00;163918.97;5069190;28;20041;-65
2023/05/23 03:13:09;;;;;;;21.73;15.55;;;;;;;12.83;100.00;163918.97;5071076;28;20024;-65
2023/05/23 03:15:35;;;;;;;26.02;15.13;;;;;;;12.84;100.00;163923.03;5069245;28;20105;-66
2023/05/23 03:18:00;;;;;;;22.85;14.85;;;;;;;12.86;100.00;163927.06;5071222;28;20082;-66
2023/05/23 03:20:26;;;;;;;21.40;14.57;;;;;;;12.84;100.00;163923.03;5069628;28;20037;-66
2023/05/23 03:22:51;;;;;;;37.55;18.83;;;;;;;12.79;100.00;163909.53;5070639;28;20035;-66
2023/05/23 03:25:16;;;;;;;27.80;14.85;;;;;;;12.81;100.00;163913.56;5069640;28;20033;-66
2023/05/23 03:27:42;;;;;;;35.33;15.10;;;;;;;12.81;100.00;163914.88;5070843;28;20028;-67
2023/05/23 03:30:08;;;;;;;25.13;18.75;;;;;;;12.82;100.00;163916.28;5069014;28;20556;-66
2023/05/23 03:32:33;;;;;;;34.30;20.13;;;;;;;12.83;100.00;163918.97;5070914;28;20111;-65
2023/05/23 03:34:58;;;;;;;25.27;16.77;;;;;;;12.78;100.00;163905.44;5069732;28;20033;-64
2023/05/23 03:37:24;;;;;;;30.80;19.58;;;;;;;12.80;100.00;163910.84;5070631;28;20032;-65
2023/05/23 03:39:49;;;;;;;30.95;18.23;;;;;;;12.78;100.00;163906.81;5068916;28;20106;-64
2023/05/23 03:42:14;;;;;;;24.77;16.73;;;;;;;12.76;100.00;163900.06;5070775;28;20027;-65
2023/05/23 03:44:40;;;;;;;24.60;15.93;;;;;;;12.76;100.00;163900.06;5069005;28;20032;-65
2023/05/23 03:47:05;;;;;;;26.55;16.45;;;;;;;12.76;100.00;163901.38;5070630;28;20032;-66
2023/05/23 03:49:30;;;;;;;30.83;17.08;;;;;;;12.79;100.00;163908.13;5069218;28;20043;-63
2023/05/23 03:51:56;;;;;;;28.25;16.92;;;;;;;12.78;100.00;163905.44;5070849;28;20020;-64
2023/05/23 03:54:21;;;;;;;25.35;15.05;;;;;;;12.73;100.00;163891.94;5069375;28;20491;-67
2023/05/23 03:56:47;;;;;;;23.17;15.43;;;;;;;12.60;100.00;163858.13;5070535;28;20052;-67
2023/05/23 03:59:12;;;;;;;26.17;16.65;;;;;;;12.63;100.00;163867.59;5069039;28;20043;-66
2023/05/23 04:01:38;;;;;;;29.25;16.00;;;;;;;12.60;100.00;163859.50;5070092;28;20040;-66
2023/05/23 04:04:03;;;;;;;27.52;15.57;;;;;;;12.62;100.00;163864.88;5069398;28;20036;-66
2023/05/23 04:06:30;;;;;;;35.28;16.63;;;;;;;12.59;100.00;163856.78;5069976;28;20020;-67
2023/05/23 04:08:56;;;;;;;23.27;14.20;;;;;;;12.61;100.00;163862.22;5069178;28;20032;-67
2023/05/23 04:11:21;;;;;;;27.30;16.17;;;;;;;12.60;100.00;163858.13;5070433;28;20031;-66
2023/05/23 04:13:47;;;;;;;29.17;14.57;;;;;;;12.61;100.00;163862.22;5068011;28;20114;-65
2023/05/23 04:16:12;;;;;;;25.65;15.65;;;;;;;12.58;100.00;163854.09;5070416;28;20422;-65
2023/05/23 04:18:37;;;;;;;41.50;17.02;;;;;;;12.58;100.00;163854.09;5068708;28;20028;-66
2023/05/23 04:21:03;;;;;;;26.65;18.20;;;;;;;12.58;100.00;163854.09;5069640;28;20032;-65
2023/05/23 04:23:28;;;;;;;28.85;15.55;;;;;;;12.55;100.00;163845.97;5068151;28;20040;-62
2023/05/23 04:25:56;;;;;;;30.02;15.13;;;;;;;12.58;100.00;163854.09;5068201;28;20722;-65
2023/05/23 04:28:21;;;;;;;33.00;13.60;;;;;;;12.51;100.00;163836.50;5068336;28;20382;-62
2023/05/23 04:30:48;;;;;;;29.05;13.10;;;;;;;12.53;100.00;163840.59;5069802;28;20020;-63
2023/05/23 04:33:13;;;;;;;24.52;15.27;;;;;;;12.52;100.00;163837.88;5070431;28;20035;-62
2023/05/23 04:35:39;;;;;;;32.72;16.67;;;;;;;12.50;100.00;163832.47;5067836;28;20399;-63
2023/05/23 04:38:05;;;;;;;25.20;15.23;;;;;;;12.53;100.00;163840.59;5069825;28;20035;-63
2023/05/23 04:40:30;;;;;;;25.65;13.45;;;;;;;12.50;100.00;163832.47;5068361;28;20065;-63
2023/05/23 04:42:56;;;;;;;18.02;13.38;;;;;;;12.55;100.00;163845.97;5073841;28;20043;-62
2023/05/23 04:45:21;;;;;;;31.55;13.88;;;;;;;12.57;100.00;163851.38;5072811;28;20461;-63
2023/05/23 04:47:47;;;;;;;22.55;15.70;;;;;;;12.60;100.00;163858.13;5073829;28;20020;-63
2023/05/23 04:50:15;;;;;;;25.52;14.35;;;;;;;12.62;100.00;163864.88;5072287;28;20037;-63
2023/05/23 04:52:40;;;;;;;16.52;12.40;;;;;;;12.63;100.00;163867.59;5073542;28;20021;-62
2023/05/23 04:55:07;;;;;;;22.75;13.50;;;;;;;12.69;100.00;163882.47;5072489;28;20048;-63
2023/05/23 04:57:33;;;;;;;31.50;15.73;;;;;;;12.71;100.00;163887.88;5073547;28;20024;-63
2023/05/23 04:59:59;;;;;;;23.63;11.57;;;;;;;12.66;100.00;163875.72;5072056;28;20045;-62
2023/05/23 05:02:25;;;;;;;23.98;13.43;;;;;;;12.68;100.00;163881.13;5073309;28;20093;-62
2023/05/23 05:04:51;;;;;;;26.77;14.88;;;;;;;12.61;100.00;163862.22;5071519;28;20052;-62
2023/05/23 05:07:16;;;;;;;17.38;11.07;;;;;;;12.68;100.00;163881.13;5073781;28;20494;-61
2023/05/23 05:09:42;;;;;;;24.45;12.15;;;;;;;12.69;100.00;163883.84;5071937;28;20064;-61
2023/05/23 05:12:08;;;;;;;15.57;10.27;;;;;;;12.72;100.00;163889.22;5073019;28;20049;-61
2023/05/23 05:14:33;;;;;;;20.63;11.77;;;;;;;12.74;100.00;163894.63;5071965;28;20036;-62
2023/05/23 05:17:01;;;;;;;22.02;11.15;;;;;;;12.72;100.00;163889.22;5073387;28;20074;-62
2023/05/23 05:19:26;;;;;;;24.65;11.82;;;;;;;12.72;100.00;163889.22;5071594;28;20039;-62
2023/05/23 05:21:52;;;;;;;17.08;10.70;;;;;;;12.77;100.00;163902.75;5072346;28;20028;-62
2023/05/23 05:24:19;;;;;;;18.75;9.30;;;;;;;12.70;100.00;163885.19;5071684;28;20043;-62
2023/05/23 05:26:45;;;;;;;18.77;8.95;;;;;;;12.70;100.00;163886.50;5072401;28;20483;-61
2023/05/23 05:29:10;;;;;;;14.55;9.35;;;;;;;12.67;100.00;163877.03;5071675;28;20048;-61
2023/05/23 05:31:36;;;;;;;17.38;10.68;;;;;;;12.70;100.00;163885.19;5072717;28;20021;-61
2023/05/23 05:34:01;;;;;;;16.83;10.85;;;;;;;12.75;100.00;163897.34;5071606;28;20039;-62
2023/05/23 05:36:27;;;;;;;16.20;9.65;;;;;;;12.76;100.00;163901.38;5073134;28;20028;-62
2023/05/23 05:38:52;;;;;;;20.98;11.07;;;;;;;12.73;100.00;163891.94;5071148;28;20051;-62
2023/05/23 05:41:17;;;;;;;16.63;9.32;;;;;;;12.66;100.00;163875.72;5072737;28;20108;-62
2023/05/23 05:43:42;;;;;;;23.25;9.65;;;;;;;12.61;100.00;163862.22;5052326;28;20045;-62
2023/05/23 05:46:10;;;;;;;18.55;10.75;;;;;;;12.52;100.00;163839.22;5052124;28;20021;-62
2023/05/23 05:48:35;;;;;;;18.40;11.00;;;;;;;12.49;100.00;163829.75;5050580;28;20051;-62
2023/05/23 05:51:02;;;;;;;22.38;10.52;;;;;;;12.45;100.00;163818.97;5051932;28;20021;-62
2023/05/23 05:53:27;;;;;;;24.20;10.68;;;;;;;12.49;100.00;163831.13;5051201;28;20056;-62
2023/05/23 05:55:53;;;;;;;19.90;11.38;;;;;;;12.52;100.00;163837.88;5052256;28;20528;-62
2023/05/23 05:58:18;;;;;;;17.02;9.07;;;;;;;12.51;100.00;163836.50;5052305;28;20097;-62
2023/05/23 06:00:44;;;;;;;14.52;10.40;;;;;;;12.47;100.00;163824.38;5050702;28;20063;-62
2023/05/23 06:03:09;;;;;;;22.73;11.95;;;;;;;12.32;100.00;163786.50;5053142;28;20037;-61
2023/05/23 06:05:36;;;;;;;18.95;8.15;;;;;;;12.17;100.00;163746.00;5050494;28;20500;-62
2023/05/23 06:08:01;;;;;;;20.33;9.18;;;;;;;12.15;100.00;163740.59;5052742;28;20025;-62
2023/05/23 06:10:27;;;;;;;17.00;9.25;;;;;;;12.17;100.00;163746.00;5051012;28;20087;-62
2023/05/23 06:12:52;;;;;;;17.08;9.02;;;;;;;12.13;100.00;163735.16;5048630;28;20021;-62
2023/05/23 06:15:18;;;;;;;27.42;9.45;;;;;;;12.11;100.00;163731.13;5058770;28;20040;-62
2023/05/23 06:17:43;;;;;;;20.45;9.60;;;;;;;12.12;100.00;163732.47;5072158;28;20056;-62
2023/05/23 06:20:09;;;;;;;36.63;12.48;;;;;;;12.01;100.00;163704.09;5069992;28;20036;-62
2023/05/23 06:22:35;;;;;;;13.65;9.35;;;;;;;12.00;100.00;163701.38;5071883;28;20035;-62
2023/05/23 06:25:01;;;;;;;14.60;8.05;;;;;;;11.98;100.00;163697.34;5070823;28;20036;-62
2023/05/23 06:27:26;;;;;;;10.40;7.45;;;;;;;12.03;100.00;163710.84;5071780;28;20020;-62
2023/05/23 06:29:52;;;;;;;19.70;9.98;;;;;;;12.06;100.00;163717.63;5070517;28;20041;-62
2023/05/23 06:32:17;;;;;;;17.83;8.02;;;;;;;11.96;100.00;163691.88;5071045;28;20023;-62
2023/05/23 06:34:42;;;;;;;17.20;8.77;;;;;;;12.04;100.00;163713.56;5069722;28;20045;-62
2023/05/23 06:37:08;;;;;;;14.80;9.10;;;;;;;11.95;100.00;163689.16;5069730;28;20020;-62
2023/05/23 06:39:33;;;;;;;18.95;10.07;;;;;;;11.97;100.00;163693.31;5069602;28;20449;-63
2023/05/23 06:41:58;;;;;;;16.33;10.30;;;;;;;11.97;100.00;163694.63;5071509;28;20384;-62
2023/05/23 06:44:24;;;;;;;23.10;9.32;;;;;;;11.88;100.00;163670.25;5070275;28;20043;-62
2023/05/23 06:46:49;;;;;;;15.68;8.38;;;;;;;11.89;100.00;163672.97;5071864;28;20017;-63
2023/05/23 06:49:14;;;;;;;20.20;8.63;;;;;;;11.91;100.00;163678.38;5070170;28;20044;-63
2023/05/23 06:51:40;;;;;;;18.67;8.98;;;;;;;11.93;100.00;163683.81;5071487;28;20387;-62
2023/05/23 06:54:05;;;;;;;16.05;9.10;;;;;;;11.89;100.00;163672.97;5070234;28;20032;-62
2023/05/23 06:56:31;;;;;;;16.58;9.30;;;;;;;11.86;100.00;163664.91;5071272;28;20031;-62
2023/05/23 06:58:56;;;;;;;20.33;9.48;;;;;;;11.80;100.00;163648.69;5070032;28;20348;-62
2023/05/23 07:01:21;;;;;;;21.88;10.35;;;;;;;11.67;100.00;163614.91;5071215;28;20110;-62
2023/05/23 07:03:47;;;;;;;23.58;10.20;;;;;;;11.72;100.00;163628.41;5068914;28;20044;-62
2023/05/23 07:06:12;;;;;;;25.15;9.75;;;;;;;11.68;100.00;163617.63;5071516;28;20028;-62
2023/05/23 07:08:38;;;;;;;20.88;9.40;;;;;;;11.63;100.00;163605.47;5070012;28;20024;-62
2023/05/23 07:11:05;;;;;;;27.70;11.73;;;;;;;11.54;100.00;163582.47;5071054;28;20089;-62
2023/05/23 07:13:30;;;;;;;26.85;11.80;;;;;;;11.61;100.00;163600.03;5069748;28;20028;-63
2023/05/23 07:15:56;;;;;;;28.50;9.35;;;;;;;11.63;100.00;163604.06;5071519;28;20029;-63
2023/05/23 07:18:22;;;;;;;20.48;7.80;;;;;;;11.55;100.00;163583.84;5070965;28;20021;-62
2023/05/23 07:20:47;;;;;;;14.65;9.40;;;;;;;11.61;100.00;163598.72;5049395;28;20066;-62
2023/05/23 07:23:13;;;;;;;16.77;9.00;;;;;;;11.54;100.00;163582.47;5051247;28;20021;-62
2023/05/23 07:25:39;;;;;;;10.70;7.60;;;;;;;11.58;100.00;163591.91;5067902;28;20041;-62
2023/05/23 07:28:04;;;;;;;17.30;9.55;;;;;;;11.66;100.00;163613.53;5070976;28;20039;-63
2023/05/23 07:30:30;;;;;;;15.68;8.27;;;;;;;11.67;100.00;163616.22;5069419;28;20028;-63
2023/05/23 07:32:56;;;;;;;13.52;6.10;;;;;;;11.67;100.00;163616.22;5070837;28;20087;-62
2023/05/23 07:35:24;;;;;;;13.50;6.13;;;;;;;11.60;100.00;163597.31;5069336;28;20040;-63
2023/05/23 07:37:50;;;;;;;14.60;8.32;;;;;;;11.60;100.00;163597.31;5069654;28;20055;-62
2023/05/23 07:40:16;;;;;;;15.02;7.60;;;;;;;11.45;100.00;163556.81;5068972;28;20052;-62
2023/05/23 07:42:41;;;;;;;14.10;7.47;;;;;;;11.52;100.00;163575.72;5070610;28;20020;-62
2023/05/23 07:45:07;;;;;;;12.50;7.32;;;;;;;11.41;100.00;163547.34;5052236;28;20045;-62
2023/05/23 07:47:32;;;;;;;15.80;7.88;;;;;;;11.53;100.00;163578.41;5050247;28;20021;-62
2023/05/23 07:49:58;;;;;;;12.98;7.32;;;;;;;11.60;100.00;163597.31;5049236;28;20040;-62
2023/05/23 07:52:23;;;;;;;13.63;7.30;;;;;;;11.68;100.00;163618.94;5051064;28;20029;-63
2023/05/23 07:54:48;;;;;;;14.90;6.63;;;;;;;11.68;100.00;163617.63;5048726;28;20037;-62
2023/05/23 07:57:15;;;;;;;24.10;7.50;;;;;;;11.66;100.00;163612.19;5050648;28;20028;-63
2023/05/23 07:59:40;;;;;;;17.35;8.63;;;;;;;11.74;100.00;163633.81;5049197;28;20039;-63
2023/05/23 08:02:06;;;;;;;16.50;9.13;;;;;;;11.48;100.00;163564.94;5050069;28;20045;-62
2023/05/23 08:04:32;;;;;;;16.98;8.18;;;;;;;11.29;100.00;163516.28;5049071;28;20151;-62
2023/05/23 08:06:59;;;;;;;16.33;8.80;;;;;;;11.17;100.00;163485.22;5050759;28;20021;-63
2023/05/23 08:09:24;;;;;;;18.75;8.73;;;;;;;11.09;100.00;163465.00;5048723;28;20090;-62
2023/05/23 08:11:50;;;;;;;24.73;9.38;;;;;;;11.15;100.00;163478.47;5050693;28;20525;-62
2023/05/23 08:14:15;;;;;;;21.02;8.15;;;;;;;11.13;100.00;163473.13;5049259;28;20041;-63
2023/05/23 08:16:40;;;;;;;15.73;7.13;;;;;;;11.17;100.00;163483.91;5054512;28;20036;-63
2023/05/23 08:19:06;;;;;;;35.38;11.57;;;;;;;11.34;100.00;163529.84;5052745;28;20045;-62
2023/05/23 08:21:31;;;;;;;17.08;7.90;;;;;;;11.52;100.00;163575.72;5054330;28;20047;-62
2023/05/23 08:23:57;;;;;;;11.90;7.45;;;;;;;11.72;100.00;163628.41;5053430;28;20041;-62
2023/05/23 08:26:23;;;;;;;14.13;5.78;;;;;;;12.05;100.00;163716.25;5054419;28;20028;-62
2023/05/23 08:28:48;;;;;;;11.15;5.40;;;;;;;12.33;100.00;163789.22;5053062;28;20033;-62
2023/05/23 08:31:14;;;;;;;11.48;5.70;;;;;;;12.53;100.00;163840.59;5054324;28;20548;-62
2023/05/23 08:33:39;;;;;;;12.13;5.72;;;;;;;12.64;100.00;163870.28;5052260;28;20025;-62
2023/05/23 08:36:04;;;;;;;10.85;5.90;;;;;;;12.52;100.00;163837.88;5054592;28;20028;-62
2023/05/23 08:38:30;;;;;;;16.95;6.38;;;;;;;12.55;100.00;163845.97;5052601;28;20032;-62
2023/05/23 08:41:00;;;;;;;13.25;5.75;;;;;;;12.44;100.00;163816.25;5053854;28;20025;-62
2023/05/23 08:43:25;;;;;;;7.38;5.88;;;;;;;12.65;100.00;163873.00;5055758;28;20395;-61
2023/05/23 08:45:50;;;;;;;11.77;5.97;;;;;;;12.72;100.00;163889.22;5073877;28;20046;-62
2023/05/23 08:48:18;;;;;;;12.63;5.32;;;;;;;12.57;100.00;163851.38;5073964;28;20043;-62
2023/05/23 08:50:47;;;;;;;8.23;5.18;;;;;;;12.51;100.00;163835.16;5072405;28;20048;-62
2023/05/23 08:53:19;;;;;;;16.13;5.18;;;;;;;12.43;100.00;163813.53;5074121;28;20024;-62
2023/05/23 08:55:46;;;;;;;14.93;6.03;;;;;;;12.37;100.00;163800.03;5072036;28;20045;-62
2023/05/23 08:58:13;;;;;;;21.23;6.18;;;;;;;12.26;100.00;163770.28;5073900;28;20033;-62
2023/05/23 09:00:39;;;;;;;13.80;6.30;;;;;;;12.10;100.00;163727.09;5071680;28;20060;-62
2023/05/23 09:03:05;;;;;;;9.07;4.57;;;;;;;12.10;100.00;163727.09;5073550;28;20028;-61
2023/05/23 09:05:30;;;;;;;13.27;4.60;;;;;;;12.20;100.00;163754.09;5071966;28;20132;-61
2023/05/23 09:07:56;;;;;;;19.80;7.75;;;;;;;12.25;100.00;163767.59;5072309;28;20025;-62
2023/05/23 09:10:21;;;;;;;14.63;6.55;;;;;;;12.18;100.00;163750.03;5071916;28;20044;-61
2023/05/23 09:12:47;;;;;;;11.45;4.05;;;;;;;12.49;100.00;163829.75;5073512;28;20047;-62
2023/05/23 09:15:13;;;;;;;14.05;5.75;;;;;;;12.84;100.00;163921.69;5072003;28;20561;-62
2023/05/23 09:17:39;;;;;;;16.30;5.32;;;;;;;12.92;100.00;163943.28;5073143;28;20082;-62
2023/05/23 09:20:22;;;;;;;13.88;4.70;;;;;;;12.84;100.00;163921.69;5071844;28;20041;-62
2023/05/23 09:22:47;;;;;;;18.50;4.85;;;;;;;12.86;100.00;163927.06;5073271;28;20032;-65
2023/05/23 09:25:13;;;;;;;17.30;4.97;;;;;;;12.66;100.00;163875.72;5071687;28;20048;-62
2023/05/23 09:27:39;;;;;;;17.25;4.72;;;;;;;12.72;100.00;163890.59;5072760;28;20024;-62
2023/05/23 09:30:06;;;;;;;20.02;6.15;;;;;;;12.50;100.00;163832.47;5071844;28;20048;-62
2023/05/23 09:32:32;;;;;;;15.85;6.25;;;;;;;12.52;100.00;163837.88;5072847;28;20073;-62
2023/05/23 09:35:02;;;;;;;21.75;6.18;;;;;;;12.57;100.00;163850.03;5071976;28;20032;-62
2023/05/23 09:37:30;;;;;;;14.25;5.82;;;;;;;12.62;100.00;163864.88;5073061;28;20452;-62
2023/05/23 09:39:57;;;;;;;19.23;5.78;;;;;;;12.79;100.00;163908.13;5071214;28;20036;-62
2023/05/23 09:42:22;;;;;;;17.20;4.80;;;;;;;12.92;100.00;163943.28;5073135;28;20047;-62
2023/05/23 09:44:49;;;;;;;22.63;5.55;;;;;;;12.93;100.00;163945.97;5057115;28;20139;-62
2023/05/23 09:47:17;;;;;;;22.77;7.63;;;;;;;13.06;100.00;163978.47;5051642;28;20594;-62
2023/05/23 09:49:43;;;;;;;13.77;5.53;;;;;;;13.25;100.00;164029.81;5070207;28;20121;-62
2023/05/23 09:52:09;;;;;;;18.83;5.88;;;;;;;13.40;100.00;164069.09;5071918;28;20016;-62
2023/05/23 09:54:34;;;;;;;19.02;6.22;;;;;;;13.36;100.00;164058.19;5070624;28;20040;-62
2023/05/23 09:57:01;;;;;;;12.77;4.03;;;;;;;13.39;100.00;164065.00;5072651;28;20016;-62
2023/05/23 09:59:27;;;;;;;11.82;4.50;;;;;;;13.17;100.00;164008.19;5071280;28;20510;-63
2023/05/23 10:01:56;;;;;;;18.42;5.35;;;;;;;13.06;100.00;163978.47;5072092;28;20068;-60
2023/05/23 10:04:22;;;;;;;;;;;;;;;12.85;100.00;163925.72;5066800;28;20118;-60
2023/05/23 10:06:57;;;;;;;16.13;6.15;;;;;;;13.03;100.00;163971.66;5063874;28;20488;-60
2023/05/23 10:09:25;;;;;;;12.80;5.30;;;;;;;13.28;100.00;164037.94;5059421;28;20145;-61
2023/05/23 10:12:02;;;;;;;19.85;6.00;;;;;;;13.29;100.00;164040.59;5062931;28;20013;-60
2023/05/23 10:14:29;;;;;;;12.32;5.45;;;;;;;13.36;100.00;164056.88;5067280;28;20399;-60
2023/05/23 10:17:12;;;;;;;20.00;5.97;;;;;;;13.60;100.00;164120.47;5071818;28;20032;-61
2023/05/23 10:19:52;;;;;;;13.35;5.40;;;;;;;13.94;100.00;164211.09;5069105;28;20047;-60
2023/05/23 10:22:19;;;;;;;10.75;4.38;;;;;;;14.68;100.00;164403.22;5071710;28;20028;-61
2023/05/23 10:24:47;;;;;;;21.10;6.72;;;;;;;14.91;100.00;164464.09;5069730;28;20048;-61
2023/05/23 10:27:13;;;;;;;11.63;3.38;;;;;;;14.71;100.00;164411.31;5070911;28;20038;-61
2023/05/23 10:29:38;;;;;;;16.40;5.45;;;;;;;14.99;100.00;164484.44;5068868;28;20127;-61
2023/05/23 10:32:06;;;;;;;18.00;4.68;;;;;;;15.35;100.00;164579.16;5070631;28;20414;-61
2023/05/23 10:34:35;;;;;;;17.30;6.20;;;;;;;15.58;100.00;164638.75;5069589;28;20123;-61
2023/05/23 10:37:09;;;;;;;15.57;5.32;;;;;;;15.41;100.00;164595.41;5071697;28;20028;-61
2023/05/23 10:39:53;;;;;;;12.50;5.28;;;;;;;15.20;100.00;164539.88;5062574;28;20049;-61
2023/05/23 10:42:32;;;;;;;13.48;5.35;;;;;;;15.13;100.00;164522.31;5031654;28;20032;-61
2023/05/23 10:45:13;;;;;;;12.50;3.33;;;;;;;15.61;100.00;164646.84;5049809;28;20055;-61
2023/05/23 10:47:39;;;;;;;13.10;4.30;;;;;;;15.80;100.00;164696.94;5069858;28;20105;-61
2023/05/23 10:50:05;;;;;;;16.52;6.63;;;;;;;15.95;100.00;164737.59;5069571;28;20048;-61
2023/05/23 10:52:39;;;;;;;11.43;5.65;;;;;;;15.84;100.00;164709.19;5070382;28;20032;-61
2023/05/23 10:55:14;;;;;;;15.90;5.75;;;;;;;15.64;100.00;164656.31;5069791;28;20068;-61
2023/05/23 10:57:42;;;;;;;8.65;3.38;;;;;;;15.51;100.00;164622.50;5070907;28;20162;-61
2023/05/23 11:00:11;;;;;;;;;;;;;;;15.91;100.00;164725.41;5069641;28;20039;-61
2023/05/23 11:02:37;;;;;;;21.52;5.68;;;;;;;16.31;100.00;164831.06;5071096;28;19913;-61
2023/05/23 11:05:14;;;;;;;17.95;5.50;;;;;;;16.18;100.00;164797.19;5069749;28;20561;-61